sensor_id;sensor_type;location;lat;lon;timestamp;P1;durP1;ratioP1;P2;durP2;ratioP2
6626;SDS011;3349;49.830;8.748;2023-07-02T00:01:42;2.90;;;2.47;;
6626;SDS011;3349;49.830;8.748;2023-07-02T00:04:09;4.65;;;2.78;;
6626;SDS011;3349;49.830;8.748;2023-07-02T00:06:39;3.92;;;2.90;;
6626;SDS011;3349;49.830;8.748;2023-07-02T00:09:06;2.92;;;2.60;;
6626;SDS011;3349;49.830;8.748;2023-07-02T00:11:34;5.43;;;2.70;;
6626;SDS011;3349;49.830;8.748;2023-07-02T00:14:00;5.47;;;2.45;;
6626;SDS011;3349;49.830;8.748;2023-07-02T00:16:27;4.63;;;2.85;;
6626;SDS011;3349;49.830;8.748;2023-07-02T00:18:54;6.10;;;2.72;;
6626;SDS011;3349;49.830;8.748;2023-07-02T00:21:20;3.95;;;2.35;;
6626;SDS011;3349;49.830;8.748;2023-07-02T00:23:49;3.58;;;2.42;;
6626;SDS011;3349;49.830;8.748;2023-07-02T00:26:15;3.30;;;2.85;;
6626;SDS011;3349;49.830;8.748;2023-07-02T00:28:42;3.95;;;2.58;;
6626;SDS011;3349;49.830;8.748;2023-07-02T00:31:09;3.80;;;2.30;;
6626;SDS011;3349;49.830;8.748;2023-07-02T00:33:35;5.47;;;2.40;;
6626;SDS011;3349;49.830;8.748;2023-07-02T00:36:02;4.00;;;2.45;;
6626;SDS011;3349;49.830;8.748;2023-07-02T00:38:29;3.67;;;2.20;;
6626;SDS011;3349;49.830;8.748;2023-07-02T00:40:57;4.05;;;3.28;;
6626;SDS011;3349;49.830;8.748;2023-07-02T00:43:24;4.15;;;2.53;;
6626;SDS011;3349;49.830;8.748;2023-07-02T00:45:51;3.90;;;2.10;;
6626;SDS011;3349;49.830;8.748;2023-07-02T00:48:18;5.43;;;2.33;;
6626;SDS011;3349;49.830;8.748;2023-07-02T00:50:45;3.70;;;2.75;;
6626;SDS011;3349;49.830;8.748;2023-07-02T00:53:11;3.47;;;2.10;;
6626;SDS011;3349;49.830;8.748;2023-07-02T00:55:39;3.70;;;2.42;;
6626;SDS011;3349;49.830;8.748;2023-07-02T00:58:07;3.35;;;2.30;;
6626;SDS011;3349;49.830;8.748;2023-07-02T01:00:34;4.25;;;2.30;;
6626;SDS011;3349;49.830;8.748;2023-07-02T01:03:01;3.15;;;2.20;;
6626;SDS011;3349;49.830;8.748;2023-07-02T01:05:28;3.22;;;2.47;;
6626;SDS011;3349;49.830;8.748;2023-07-02T01:08:00;4.15;;;2.38;;
6626;SDS011;3349;49.830;8.748;2023-07-02T01:10:27;3.65;;;2.20;;
6626;SDS011;3349;49.830;8.748;2023-07-02T01:12:56;3.42;;;2.58;;
6626;SDS011;3349;49.830;8.748;2023-07-02T01:15:26;2.92;;;2.33;;
6626;SDS011;3349;49.830;8.748;2023-07-02T01:17:53;3.47;;;2.05;;
6626;SDS011;3349;49.830;8.748;2023-07-02T01:20:23;3.65;;;2.28;;
6626;SDS011;3349;49.830;8.748;2023-07-02T01:22:51;5.43;;;2.17;;
6626;SDS011;3349;49.830;8.748;2023-07-02T01:25:18;5.13;;;2.30;;
6626;SDS011;3349;49.830;8.748;2023-07-02T01:27:49;4.55;;;2.25;;
6626;SDS011;3349;49.830;8.748;2023-07-02T01:30:16;3.70;;;2.05;;
6626;SDS011;3349;49.830;8.748;2023-07-02T01:32:43;4.25;;;2.50;;
6626;SDS011;3349;49.830;8.748;2023-07-02T01:35:10;3.03;;;2.15;;
6626;SDS011;3349;49.830;8.748;2023-07-02T01:37:38;5.43;;;2.55;;
6626;SDS011;3349;49.830;8.748;2023-07-02T01:40:05;4.50;;;2.60;;
6626;SDS011;3349;49.830;8.748;2023-07-02T01:42:33;3.58;;;2.28;;
6626;SDS011;3349;49.830;8.748;2023-07-02T01:44:59;3.78;;;2.20;;
6626;SDS011;3349;49.830;8.748;2023-07-02T01:47:26;4.38;;;2.83;;
6626;SDS011;3349;49.830;8.748;2023-07-02T01:49:52;4.53;;;2.50;;
6626;SDS011;3349;49.830;8.748;2023-07-02T01:52:19;3.20;;;2.20;;
6626;SDS011;3349;49.830;8.748;2023-07-02T01:54:47;4.32;;;2.58;;
6626;SDS011;3349;49.830;8.748;2023-07-02T01:57:14;4.72;;;2.95;;
6626;SDS011;3349;49.830;8.748;2023-07-02T01:59:41;3.78;;;2.85;;
6626;SDS011;3349;49.830;8.748;2023-07-02T02:02:07;5.25;;;3.42;;
6626;SDS011;3349;49.830;8.748;2023-07-02T02:04:34;6.80;;;3.20;;
6626;SDS011;3349;49.830;8.748;2023-07-02T02:07:01;6.65;;;3.50;;
6626;SDS011;3349;49.830;8.748;2023-07-02T02:09:27;7.20;;;3.38;;
6626;SDS011;3349;49.830;8.748;2023-07-02T02:11:58;8.00;;;3.60;;
6626;SDS011;3349;49.830;8.748;2023-07-02T02:14:25;6.03;;;3.72;;
6626;SDS011;3349;49.830;8.748;2023-07-02T02:16:52;8.95;;;3.95;;
6626;SDS011;3349;49.830;8.748;2023-07-02T02:19:18;6.10;;;3.80;;
6626;SDS011;3349;49.830;8.748;2023-07-02T02:21:45;6.88;;;3.50;;
6626;SDS011;3349;49.830;8.748;2023-07-02T02:24:12;5.88;;;3.58;;
6626;SDS011;3349;49.830;8.748;2023-07-02T02:26:39;5.53;;;3.47;;
6626;SDS011;3349;49.830;8.748;2023-07-02T02:29:07;7.75;;;4.28;;
6626;SDS011;3349;49.830;8.748;2023-07-02T02:31:34;8.93;;;4.80;;
6626;SDS011;3349;49.830;8.748;2023-07-02T02:34:01;8.23;;;4.90;;
6626;SDS011;3349;49.830;8.748;2023-07-02T02:36:27;6.05;;;3.92;;
6626;SDS011;3349;49.830;8.748;2023-07-02T02:38:54;8.10;;;4.97;;
6626;SDS011;3349;49.830;8.748;2023-07-02T02:41:21;11.05;;;5.38;;
6626;SDS011;3349;49.830;8.748;2023-07-02T02:43:47;9.45;;;5.03;;
6626;SDS011;3349;49.830;8.748;2023-07-02T02:46:20;8.32;;;4.50;;
6626;SDS011;3349;49.830;8.748;2023-07-02T02:48:47;5.90;;;4.00;;
6626;SDS011;3349;49.830;8.748;2023-07-02T02:51:14;7.70;;;4.65;;
6626;SDS011;3349;49.830;8.748;2023-07-02T02:53:41;6.97;;;4.55;;
6626;SDS011;3349;49.830;8.748;2023-07-02T02:56:08;8.07;;;5.18;;
6626;SDS011;3349;49.830;8.748;2023-07-02T02:58:34;8.95;;;5.18;;
6626;SDS011;3349;49.830;8.748;2023-07-02T03:01:01;7.38;;;4.47;;
6626;SDS011;3349;49.830;8.748;2023-07-02T03:03:29;8.50;;;4.57;;
6626;SDS011;3349;49.830;8.748;2023-07-02T03:05:59;7.05;;;4.53;;
6626;SDS011;3349;49.830;8.748;2023-07-02T03:08:26;7.18;;;4.40;;
6626;SDS011;3349;49.830;8.748;2023-07-02T03:10:53;7.28;;;5.05;;
6626;SDS011;3349;49.830;8.748;2023-07-02T03:13:19;6.72;;;4.72;;
6626;SDS011;3349;49.830;8.748;2023-07-02T03:15:46;9.57;;;5.05;;
6626;SDS011;3349;49.830;8.748;2023-07-02T03:18:13;6.57;;;4.55;;
6626;SDS011;3349;49.830;8.748;2023-07-02T03:20:41;7.35;;;4.88;;
6626;SDS011;3349;49.830;8.748;2023-07-02T03:23:08;13.27;;;5.03;;
6626;SDS011;3349;49.830;8.748;2023-07-02T03:25:34;8.60;;;4.95;;
6626;SDS011;3349;49.830;8.748;2023-07-02T03:28:01;7.05;;;5.13;;
6626;SDS011;3349;49.830;8.748;2023-07-02T03:30:28;9.23;;;5.13;;
6626;SDS011;3349;49.830;8.748;2023-07-02T03:32:54;7.57;;;5.07;;
6626;SDS011;3349;49.830;8.748;2023-07-02T03:35:21;10.35;;;5.82;;
6626;SDS011;3349;49.830;8.748;2023-07-02T03:37:49;9.05;;;4.88;;
6626;SDS011;3349;49.830;8.748;2023-07-02T03:40:16;8.02;;;5.78;;
6626;SDS011;3349;49.830;8.748;2023-07-02T03:42:43;9.35;;;5.78;;
6626;SDS011;3349;49.830;8.748;2023-07-02T03:45:10;9.13;;;5.85;;
6626;SDS011;3349;49.830;8.748;2023-07-02T03:47:36;11.00;;;5.50;;
6626;SDS011;3349;49.830;8.748;2023-07-02T03:50:03;9.82;;;6.07;;
6626;SDS011;3349;49.830;8.748;2023-07-02T03:52:31;10.30;;;5.90;;
6626;SDS011;3349;49.830;8.748;2023-07-02T03:54:59;10.13;;;6.05;;
6626;SDS011;3349;49.830;8.748;2023-07-02T03:57:26;10.43;;;5.90;;
6626;SDS011;3349;49.830;8.748;2023-07-02T03:59:53;11.07;;;6.03;;
6626;SDS011;3349;49.830;8.748;2023-07-02T04:02:20;9.02;;;5.47;;
6626;SDS011;3349;49.830;8.748;2023-07-02T04:04:46;10.38;;;5.60;;
6626;SDS011;3349;49.830;8.748;2023-07-02T04:07:13;12.35;;;5.90;;
6626;SDS011;3349;49.830;8.748;2023-07-02T04:09:40;7.63;;;5.40;;
6626;SDS011;3349;49.830;8.748;2023-07-02T04:12:09;8.25;;;5.50;;
6626;SDS011;3349;49.830;8.748;2023-07-02T04:14:36;7.82;;;5.47;;
6626;SDS011;3349;49.830;8.748;2023-07-02T04:17:02;10.25;;;5.57;;
6626;SDS011;3349;49.830;8.748;2023-07-02T04:19:29;9.43;;;5.53;;
6626;SDS011;3349;49.830;8.748;2023-07-02T04:21:56;9.65;;;6.05;;
6626;SDS011;3349;49.830;8.748;2023-07-02T04:24:23;9.55;;;5.57;;
6626;SDS011;3349;49.830;8.748;2023-07-02T04:26:50;8.52;;;5.63;;
6626;SDS011;3349;49.830;8.748;2023-07-02T04:29:20;7.65;;;5.63;;
6626;SDS011;3349;49.830;8.748;2023-07-02T04:31:46;9.65;;;5.38;;
6626;SDS011;3349;49.830;8.748;2023-07-02T04:34:13;8.38;;;6.10;;
6626;SDS011;3349;49.830;8.748;2023-07-02T04:36:40;10.55;;;6.43;;
6626;SDS011;3349;49.830;8.748;2023-07-02T04:39:07;11.48;;;6.82;;
6626;SDS011;3349;49.830;8.748;2023-07-02T04:41:35;11.98;;;6.43;;
6626;SDS011;3349;49.830;8.748;2023-07-02T04:44:02;11.18;;;6.70;;
6626;SDS011;3349;49.830;8.748;2023-07-02T04:46:30;11.25;;;6.68;;
6626;SDS011;3349;49.830;8.748;2023-07-02T04:48:57;9.38;;;6.55;;
6626;SDS011;3349;49.830;8.748;2023-07-02T04:51:24;9.95;;;6.20;;
6626;SDS011;3349;49.830;8.748;2023-07-02T04:53:51;11.70;;;6.68;;
6626;SDS011;3349;49.830;8.748;2023-07-02T04:56:18;11.13;;;6.25;;
6626;SDS011;3349;49.830;8.748;2023-07-02T04:58:44;10.77;;;7.00;;
6626;SDS011;3349;49.830;8.748;2023-07-02T05:01:11;11.18;;;6.60;;
6626;SDS011;3349;49.830;8.748;2023-07-02T05:03:39;9.52;;;6.63;;
6626;SDS011;3349;49.830;8.748;2023-07-02T05:06:06;10.65;;;5.88;;
6626;SDS011;3349;49.830;8.748;2023-07-02T05:08:32;9.88;;;6.55;;
6626;SDS011;3349;49.830;8.748;2023-07-02T05:11:01;10.60;;;6.80;;
6626;SDS011;3349;49.830;8.748;2023-07-02T05:13:28;12.30;;;6.45;;
6626;SDS011;3349;49.830;8.748;2023-07-02T05:15:54;13.05;;;6.93;;
6626;SDS011;3349;49.830;8.748;2023-07-02T05:18:21;12.60;;;6.80;;
6626;SDS011;3349;49.830;8.748;2023-07-02T05:20:49;10.70;;;6.50;;
6626;SDS011;3349;49.830;8.748;2023-07-02T05:23:16;13.88;;;7.40;;
6626;SDS011;3349;49.830;8.748;2023-07-02T05:25:42;14.05;;;7.85;;
6626;SDS011;3349;49.830;8.748;2023-07-02T05:28:11;12.90;;;7.35;;
6626;SDS011;3349;49.830;8.748;2023-07-02T05:30:37;13.57;;;7.65;;
6626;SDS011;3349;49.830;8.748;2023-07-02T05:33:04;13.80;;;8.13;;
6626;SDS011;3349;49.830;8.748;2023-07-02T05:35:31;11.48;;;7.35;;
6626;SDS011;3349;49.830;8.748;2023-07-02T05:37:59;11.90;;;7.35;;
6626;SDS011;3349;49.830;8.748;2023-07-02T05:40:26;13.95;;;7.65;;
6626;SDS011;3349;49.830;8.748;2023-07-02T05:42:52;11.77;;;8.00;;
6626;SDS011;3349;49.830;8.748;2023-07-02T05:45:19;13.18;;;7.38;;
6626;SDS011;3349;49.830;8.748;2023-07-02T05:47:46;16.45;;;8.27;;
6626;SDS011;3349;49.830;8.748;2023-07-02T05:50:13;14.25;;;8.20;;
6626;SDS011;3349;49.830;8.748;2023-07-02T05:52:39;16.08;;;8.35;;
6626;SDS011;3349;49.830;8.748;2023-07-02T05:55:08;12.43;;;7.85;;
6626;SDS011;3349;49.830;8.748;2023-07-02T05:57:36;11.13;;;7.80;;
6626;SDS011;3349;49.830;8.748;2023-07-02T06:00:03;14.95;;;8.15;;
6626;SDS011;3349;49.830;8.748;2023-07-02T06:02:31;11.45;;;7.82;;
6626;SDS011;3349;49.830;8.748;2023-07-02T06:04:58;14.20;;;8.00;;
6626;SDS011;3349;49.830;8.748;2023-07-02T06:07:26;17.58;;;8.27;;
6626;SDS011;3349;49.830;8.748;2023-07-02T06:09:53;14.07;;;8.68;;
6626;SDS011;3349;49.830;8.748;2023-07-02T06:12:21;14.73;;;8.35;;
6626;SDS011;3349;49.830;8.748;2023-07-02T06:14:49;16.15;;;8.68;;
6626;SDS011;3349;49.830;8.748;2023-07-02T06:17:15;15.02;;;8.88;;
6626;SDS011;3349;49.830;8.748;2023-07-02T06:19:43;15.73;;;8.57;;
6626;SDS011;3349;49.830;8.748;2023-07-02T06:22:11;16.52;;;8.50;;
6626;SDS011;3349;49.830;8.748;2023-07-02T06:24:38;15.68;;;8.32;;
6626;SDS011;3349;49.830;8.748;2023-07-02T06:27:05;13.40;;;8.10;;
6626;SDS011;3349;49.830;8.748;2023-07-02T06:29:33;13.73;;;9.60;;
6626;SDS011;3349;49.830;8.748;2023-07-02T06:32:00;12.15;;;8.70;;
6626;SDS011;3349;49.830;8.748;2023-07-02T06:34:26;15.73;;;9.40;;
6626;SDS011;3349;49.830;8.748;2023-07-02T06:36:53;16.25;;;9.40;;
6626;SDS011;3349;49.830;8.748;2023-07-02T06:39:20;13.23;;;8.45;;
6626;SDS011;3349;49.830;8.748;2023-07-02T06:41:47;18.30;;;8.60;;
6626;SDS011;3349;49.830;8.748;2023-07-02T06:44:13;14.45;;;9.13;;
6626;SDS011;3349;49.830;8.748;2023-07-02T06:46:41;15.43;;;8.88;;
6626;SDS011;3349;49.830;8.748;2023-07-02T06:49:11;18.73;;;9.20;;
6626;SDS011;3349;49.830;8.748;2023-07-02T06:51:38;14.55;;;9.00;;
6626;SDS011;3349;49.830;8.748;2023-07-02T06:54:05;13.02;;;9.10;;
6626;SDS011;3349;49.830;8.748;2023-07-02T06:56:32;14.10;;;8.30;;
6626;SDS011;3349;49.830;8.748;2023-07-02T06:58:59;13.38;;;8.55;;
6626;SDS011;3349;49.830;8.748;2023-07-02T07:01:26;12.77;;;9.00;;
6626;SDS011;3349;49.830;8.748;2023-07-02T07:03:54;17.10;;;9.55;;
6626;SDS011;3349;49.830;8.748;2023-07-02T07:06:21;17.30;;;9.85;;
6626;SDS011;3349;49.830;8.748;2023-07-02T07:08:48;13.68;;;8.75;;
6626;SDS011;3349;49.830;8.748;2023-07-02T07:11:14;16.65;;;9.32;;
6626;SDS011;3349;49.830;8.748;2023-07-02T07:13:41;13.70;;;8.65;;
6626;SDS011;3349;49.830;8.748;2023-07-02T07:16:08;17.58;;;9.18;;
6626;SDS011;3349;49.830;8.748;2023-07-02T07:18:35;17.25;;;9.82;;
6626;SDS011;3349;49.830;8.748;2023-07-02T07:21:03;14.68;;;9.35;;
6626;SDS011;3349;49.830;8.748;2023-07-02T07:23:30;15.60;;;9.75;;
6626;SDS011;3349;49.830;8.748;2023-07-02T07:25:57;16.00;;;9.70;;
6626;SDS011;3349;49.830;8.748;2023-07-02T07:28:23;18.83;;;10.52;;
6626;SDS011;3349;49.830;8.748;2023-07-02T07:30:50;17.83;;;9.80;;
6626;SDS011;3349;49.830;8.748;2023-07-02T07:33:17;15.93;;;9.80;;
6626;SDS011;3349;49.830;8.748;2023-07-02T07:35:43;15.70;;;10.27;;
6626;SDS011;3349;49.830;8.748;2023-07-02T07:38:13;16.33;;;10.25;;
6626;SDS011;3349;49.830;8.748;2023-07-02T07:40:40;17.17;;;10.35;;
6626;SDS011;3349;49.830;8.748;2023-07-02T07:43:06;14.93;;;9.73;;
6626;SDS011;3349;49.830;8.748;2023-07-02T07:45:33;17.55;;;11.13;;
6626;SDS011;3349;49.830;8.748;2023-07-02T07:48:00;16.70;;;10.38;;
6626;SDS011;3349;49.830;8.748;2023-07-02T07:50:27;16.15;;;10.23;;
6626;SDS011;3349;49.830;8.748;2023-07-02T07:52:54;15.32;;;10.20;;
6626;SDS011;3349;49.830;8.748;2023-07-02T07:55:22;16.13;;;10.57;;
6626;SDS011;3349;49.830;8.748;2023-07-02T07:57:49;17.75;;;10.95;;
6626;SDS011;3349;49.830;8.748;2023-07-02T08:00:16;14.30;;;10.85;;
6626;SDS011;3349;49.830;8.748;2023-07-02T08:02:44;15.02;;;10.88;;
6626;SDS011;3349;49.830;8.748;2023-07-02T08:05:11;21.33;;;11.25;;
6626;SDS011;3349;49.830;8.748;2023-07-02T08:07:39;13.90;;;10.40;;
6626;SDS011;3349;49.830;8.748;2023-07-02T08:10:06;16.48;;;10.88;;
6626;SDS011;3349;49.830;8.748;2023-07-02T08:12:35;17.13;;;11.40;;
6626;SDS011;3349;49.830;8.748;2023-07-02T08:15:02;13.90;;;10.85;;
6626;SDS011;3349;49.830;8.748;2023-07-02T08:17:29;17.77;;;10.23;;
6626;SDS011;3349;49.830;8.748;2023-07-02T08:19:56;13.25;;;10.20;;
6626;SDS011;3349;49.830;8.748;2023-07-02T08:22:22;13.23;;;10.02;;
6626;SDS011;3349;49.830;8.748;2023-07-02T08:24:49;13.90;;;9.35;;
6626;SDS011;3349;49.830;8.748;2023-07-02T08:27:16;14.23;;;9.52;;
6626;SDS011;3349;49.830;8.748;2023-07-02T08:29:45;13.15;;;9.75;;
6626;SDS011;3349;49.830;8.748;2023-07-02T08:32:13;14.10;;;9.75;;
6626;SDS011;3349;49.830;8.748;2023-07-02T08:34:39;14.40;;;10.27;;
6626;SDS011;3349;49.830;8.748;2023-07-02T08:37:06;16.30;;;10.23;;
6626;SDS011;3349;49.830;8.748;2023-07-02T08:39:33;12.95;;;9.73;;
6626;SDS011;3349;49.830;8.748;2023-07-02T08:42:01;15.13;;;10.38;;
6626;SDS011;3349;49.830;8.748;2023-07-02T08:44:27;16.10;;;9.20;;
6626;SDS011;3349;49.830;8.748;2023-07-02T08:46:55;15.38;;;9.18;;
6626;SDS011;3349;49.830;8.748;2023-07-02T08:49:22;12.55;;;9.20;;
6626;SDS011;3349;49.830;8.748;2023-07-02T08:51:49;17.65;;;9.98;;
6626;SDS011;3349;49.830;8.748;2023-07-02T08:54:17;14.05;;;9.95;;
6626;SDS011;3349;49.830;8.748;2023-07-02T08:56:44;15.05;;;10.18;;
6626;SDS011;3349;49.830;8.748;2023-07-02T08:59:11;13.98;;;8.85;;
6626;SDS011;3349;49.830;8.748;2023-07-02T09:01:44;13.27;;;9.20;;
6626;SDS011;3349;49.830;8.748;2023-07-02T09:04:16;13.32;;;9.60;;
6626;SDS011;3349;49.830;8.748;2023-07-02T09:06:44;11.73;;;8.95;;
6626;SDS011;3349;49.830;8.748;2023-07-02T09:09:11;11.52;;;9.00;;
6626;SDS011;3349;49.830;8.748;2023-07-02T09:11:46;12.27;;;9.05;;
6626;SDS011;3349;49.830;8.748;2023-07-02T09:14:23;12.50;;;9.68;;
6626;SDS011;3349;49.830;8.748;2023-07-02T09:17:00;10.70;;;8.77;;
6626;SDS011;3349;49.830;8.748;2023-07-02T09:19:30;12.13;;;9.27;;
6626;SDS011;3349;49.830;8.748;2023-07-02T09:21:57;16.45;;;10.10;;
6626;SDS011;3349;49.830;8.748;2023-07-02T09:24:25;12.88;;;9.65;;
6626;SDS011;3349;49.830;8.748;2023-07-02T09:26:53;15.88;;;10.23;;
6626;SDS011;3349;49.830;8.748;2023-07-02T09:29:21;12.00;;;10.02;;
6626;SDS011;3349;49.830;8.748;2023-07-02T09:31:49;15.27;;;10.45;;
6626;SDS011;3349;49.830;8.748;2023-07-02T09:34:16;13.40;;;10.55;;
6626;SDS011;3349;49.830;8.748;2023-07-02T09:36:44;16.45;;;10.65;;
6626;SDS011;3349;49.830;8.748;2023-07-02T09:39:12;15.52;;;10.23;;
6626;SDS011;3349;49.830;8.748;2023-07-02T09:41:40;13.40;;;9.55;;
6626;SDS011;3349;49.830;8.748;2023-07-02T09:44:07;13.20;;;9.70;;
6626;SDS011;3349;49.830;8.748;2023-07-02T09:46:36;14.20;;;10.00;;
6626;SDS011;3349;49.830;8.748;2023-07-02T09:49:04;14.05;;;9.73;;
6626;SDS011;3349;49.830;8.748;2023-07-02T09:51:34;16.80;;;10.35;;
6626;SDS011;3349;49.830;8.748;2023-07-02T09:54:02;13.35;;;9.85;;
6626;SDS011;3349;49.830;8.748;2023-07-02T09:56:29;14.68;;;10.82;;
6626;SDS011;3349;49.830;8.748;2023-07-02T09:58:55;15.38;;;11.82;;
6626;SDS011;3349;49.830;8.748;2023-07-02T10:01:23;15.70;;;12.32;;
6626;SDS011;3349;49.830;8.748;2023-07-02T10:03:49;16.65;;;11.63;;
6626;SDS011;3349;49.830;8.748;2023-07-02T10:06:16;17.45;;;11.60;;
6626;SDS011;3349;49.830;8.748;2023-07-02T10:08:51;14.38;;;10.82;;
6626;SDS011;3349;49.830;8.748;2023-07-02T10:11:20;15.18;;;11.80;;
6626;SDS011;3349;49.830;8.748;2023-07-02T10:13:58;15.02;;;11.77;;
6626;SDS011;3349;49.830;8.748;2023-07-02T10:16:25;16.73;;;13.45;;
6626;SDS011;3349;49.830;8.748;2023-07-02T10:18:52;17.45;;;13.48;;
6626;SDS011;3349;49.830;8.748;2023-07-02T10:21:19;15.90;;;12.63;;
6626;SDS011;3349;49.830;8.748;2023-07-02T10:23:46;17.50;;;11.82;;
6626;SDS011;3349;49.830;8.748;2023-07-02T10:26:13;14.43;;;11.38;;
6626;SDS011;3349;49.830;8.748;2023-07-02T10:28:42;18.05;;;11.82;;
6626;SDS011;3349;49.830;8.748;2023-07-02T10:31:21;15.18;;;11.18;;
6626;SDS011;3349;49.830;8.748;2023-07-02T10:33:48;19.35;;;12.18;;
6626;SDS011;3349;49.830;8.748;2023-07-02T10:36:18;18.02;;;11.77;;
6626;SDS011;3349;49.830;8.748;2023-07-02T10:38:46;14.35;;;11.60;;
6626;SDS011;3349;49.830;8.748;2023-07-02T10:41:22;15.65;;;12.48;;
6626;SDS011;3349;49.830;8.748;2023-07-02T10:43:51;17.17;;;12.63;;
6626;SDS011;3349;49.830;8.748;2023-07-02T10:46:18;16.73;;;12.50;;
6626;SDS011;3349;49.830;8.748;2023-07-02T10:48:50;21.15;;;13.48;;
6626;SDS011;3349;49.830;8.748;2023-07-02T10:51:18;17.17;;;13.32;;
6626;SDS011;3349;49.830;8.748;2023-07-02T10:53:46;14.82;;;12.35;;
6626;SDS011;3349;49.830;8.748;2023-07-02T10:56:22;16.40;;;13.30;;
6626;SDS011;3349;49.830;8.748;2023-07-02T10:58:50;16.85;;;12.85;;
6626;SDS011;3349;49.830;8.748;2023-07-02T11:01:21;14.73;;;12.75;;
6626;SDS011;3349;49.830;8.748;2023-07-02T11:03:55;16.50;;;13.27;;
6626;SDS011;3349;49.830;8.748;2023-07-02T11:06:22;15.80;;;12.77;;
6626;SDS011;3349;49.830;8.748;2023-07-02T11:08:49;16.60;;;13.40;;
6626;SDS011;3349;49.830;8.748;2023-07-02T11:11:16;16.38;;;13.38;;
6626;SDS011;3349;49.830;8.748;2023-07-02T11:13:46;17.05;;;13.65;;
6626;SDS011;3349;49.830;8.748;2023-07-02T11:16:23;15.45;;;13.18;;
6626;SDS011;3349;49.830;8.748;2023-07-02T11:18:53;15.52;;;13.07;;
6626;SDS011;3349;49.830;8.748;2023-07-02T11:21:31;16.02;;;13.63;;
6626;SDS011;3349;49.830;8.748;2023-07-02T11:24:01;15.02;;;13.48;;
6626;SDS011;3349;49.830;8.748;2023-07-02T11:26:34;15.23;;;13.07;;
6626;SDS011;3349;49.830;8.748;2023-07-02T11:29:01;16.40;;;13.05;;
6626;SDS011;3349;49.830;8.748;2023-07-02T11:31:29;16.58;;;13.50;;
6626;SDS011;3349;49.830;8.748;2023-07-02T11:33:56;15.00;;;13.40;;
6626;SDS011;3349;49.830;8.748;2023-07-02T11:36:23;15.18;;;12.43;;
6626;SDS011;3349;49.830;8.748;2023-07-02T11:38:51;16.48;;;13.85;;
6626;SDS011;3349;49.830;8.748;2023-07-02T11:41:18;15.82;;;13.65;;
6626;SDS011;3349;49.830;8.748;2023-07-02T11:43:46;17.50;;;14.20;;
6626;SDS011;3349;49.830;8.748;2023-07-02T11:46:13;16.23;;;14.35;;
6626;SDS011;3349;49.830;8.748;2023-07-02T11:48:41;16.30;;;13.93;;
6626;SDS011;3349;49.830;8.748;2023-07-02T11:51:08;17.10;;;14.45;;
6626;SDS011;3349;49.830;8.748;2023-07-02T11:53:35;19.58;;;14.32;;
6626;SDS011;3349;49.830;8.748;2023-07-02T11:56:02;17.73;;;14.65;;
6626;SDS011;3349;49.830;8.748;2023-07-02T11:58:29;15.98;;;14.13;;
6626;SDS011;3349;49.830;8.748;2023-07-02T12:00:56;17.73;;;14.52;;
6626;SDS011;3349;49.830;8.748;2023-07-02T12:03:22;17.58;;;14.38;;
6626;SDS011;3349;49.830;8.748;2023-07-02T12:05:50;18.70;;;14.50;;
6626;SDS011;3349;49.830;8.748;2023-07-02T12:08:17;15.98;;;13.32;;
6626;SDS011;3349;49.830;8.748;2023-07-02T12:10:44;17.00;;;14.10;;
6626;SDS011;3349;49.830;8.748;2023-07-02T12:13:10;17.92;;;14.95;;
6626;SDS011;3349;49.830;8.748;2023-07-02T12:15:37;16.25;;;13.77;;
6626;SDS011;3349;49.830;8.748;2023-07-02T12:18:04;18.05;;;14.85;;
6626;SDS011;3349;49.830;8.748;2023-07-02T12:20:31;19.17;;;14.52;;
6626;SDS011;3349;49.830;8.748;2023-07-02T12:22:59;17.83;;;14.85;;
6626;SDS011;3349;49.830;8.748;2023-07-02T12:25:26;19.98;;;14.25;;
6626;SDS011;3349;49.830;8.748;2023-07-02T12:27:52;17.48;;;14.52;;
6626;SDS011;3349;49.830;8.748;2023-07-02T12:30:19;21.60;;;14.65;;
6626;SDS011;3349;49.830;8.748;2023-07-02T12:32:46;17.88;;;14.90;;
6626;SDS011;3349;49.830;8.748;2023-07-02T12:35:12;18.67;;;14.90;;
6626;SDS011;3349;49.830;8.748;2023-07-02T12:37:42;18.92;;;14.35;;
6626;SDS011;3349;49.830;8.748;2023-07-02T12:40:12;20.58;;;14.68;;
6626;SDS011;3349;49.830;8.748;2023-07-02T12:42:40;19.35;;;15.15;;
6626;SDS011;3349;49.830;8.748;2023-07-02T12:45:08;18.65;;;14.63;;
6626;SDS011;3349;49.830;8.748;2023-07-02T12:47:36;19.70;;;15.13;;
6626;SDS011;3349;49.830;8.748;2023-07-02T12:50:03;19.38;;;15.05;;
6626;SDS011;3349;49.830;8.748;2023-07-02T12:52:30;18.70;;;14.63;;
6626;SDS011;3349;49.830;8.748;2023-07-02T12:54:57;18.63;;;14.35;;
6626;SDS011;3349;49.830;8.748;2023-07-02T12:57:26;17.95;;;14.82;;
6626;SDS011;3349;49.830;8.748;2023-07-02T12:59:53;17.05;;;13.55;;
6626;SDS011;3349;49.830;8.748;2023-07-02T13:02:19;18.40;;;14.57;;
6626;SDS011;3349;49.830;8.748;2023-07-02T13:04:46;18.70;;;14.95;;
6626;SDS011;3349;49.830;8.748;2023-07-02T13:07:13;20.80;;;15.23;;
6626;SDS011;3349;49.830;8.748;2023-07-02T13:09:40;19.70;;;14.98;;
6626;SDS011;3349;49.830;8.748;2023-07-02T13:12:07;18.75;;;14.90;;
6626;SDS011;3349;49.830;8.748;2023-07-02T13:14:35;18.60;;;14.02;;
6626;SDS011;3349;49.830;8.748;2023-07-02T13:17:02;20.30;;;15.55;;
6626;SDS011;3349;49.830;8.748;2023-07-02T13:19:30;19.98;;;14.73;;
6626;SDS011;3349;49.830;8.748;2023-07-02T13:21:57;18.65;;;15.27;;
6626;SDS011;3349;49.830;8.748;2023-07-02T13:24:24;20.55;;;15.73;;
6626;SDS011;3349;49.830;8.748;2023-07-02T13:26:50;21.33;;;14.65;;
6626;SDS011;3349;49.830;8.748;2023-07-02T13:29:17;21.90;;;15.75;;
6626;SDS011;3349;49.830;8.748;2023-07-02T13:31:45;22.25;;;15.23;;
6626;SDS011;3349;49.830;8.748;2023-07-02T13:34:12;22.27;;;15.68;;
6626;SDS011;3349;49.830;8.748;2023-07-02T13:36:39;23.20;;;15.68;;
6626;SDS011;3349;49.830;8.748;2023-07-02T13:39:05;19.90;;;14.82;;
6626;SDS011;3349;49.830;8.748;2023-07-02T13:41:32;19.05;;;14.50;;
6626;SDS011;3349;49.830;8.748;2023-07-02T13:43:59;19.13;;;14.75;;
6626;SDS011;3349;49.830;8.748;2023-07-02T13:46:26;18.83;;;14.77;;
6626;SDS011;3349;49.830;8.748;2023-07-02T13:48:54;20.98;;;15.18;;
6626;SDS011;3349;49.830;8.748;2023-07-02T13:51:21;18.20;;;14.55;;
6626;SDS011;3349;49.830;8.748;2023-07-02T13:53:48;20.75;;;14.40;;
6626;SDS011;3349;49.830;8.748;2023-07-02T13:56:14;22.55;;;14.75;;
6626;SDS011;3349;49.830;8.748;2023-07-02T14:01:12;19.73;;;14.52;;
6626;SDS011;3349;49.830;8.748;2023-07-02T14:03:39;19.67;;;14.68;;
6626;SDS011;3349;49.830;8.748;2023-07-02T14:06:06;24.65;;;15.73;;
6626;SDS011;3349;49.830;8.748;2023-07-02T14:08:34;22.65;;;14.45;;
6626;SDS011;3349;49.830;8.748;2023-07-02T14:11:01;23.42;;;15.40;;
6626;SDS011;3349;49.830;8.748;2023-07-02T14:13:28;22.40;;;15.88;;
6626;SDS011;3349;49.830;8.748;2023-07-02T14:15:56;23.60;;;15.63;;
6626;SDS011;3349;49.830;8.748;2023-07-02T14:18:24;22.77;;;15.15;;
6626;SDS011;3349;49.830;8.748;2023-07-02T14:20:51;20.45;;;15.55;;
6626;SDS011;3349;49.830;8.748;2023-07-02T14:23:17;23.27;;;15.50;;
6626;SDS011;3349;49.830;8.748;2023-07-02T14:25:44;23.33;;;15.18;;
6626;SDS011;3349;49.830;8.748;2023-07-02T14:28:11;21.02;;;15.73;;
6626;SDS011;3349;49.830;8.748;2023-07-02T14:30:38;21.10;;;15.68;;
6626;SDS011;3349;49.830;8.748;2023-07-02T14:33:07;23.10;;;15.77;;
6626;SDS011;3349;49.830;8.748;2023-07-02T14:35:35;18.20;;;14.43;;
6626;SDS011;3349;49.830;8.748;2023-07-02T14:38:02;21.90;;;14.88;;
6626;SDS011;3349;49.830;8.748;2023-07-02T14:40:31;19.50;;;14.25;;
6626;SDS011;3349;49.830;8.748;2023-07-02T14:42:58;23.63;;;15.98;;
6626;SDS011;3349;49.830;8.748;2023-07-02T14:45:24;25.23;;;16.60;;
6626;SDS011;3349;49.830;8.748;2023-07-02T14:47:51;19.15;;;15.35;;
6626;SDS011;3349;49.830;8.748;2023-07-02T14:50:18;20.25;;;15.77;;
6626;SDS011;3349;49.830;8.748;2023-07-02T14:52:46;19.92;;;15.55;;
6626;SDS011;3349;49.830;8.748;2023-07-02T14:55:13;21.55;;;15.90;;
6626;SDS011;3349;49.830;8.748;2023-07-02T14:57:40;22.23;;;16.33;;
6626;SDS011;3349;49.830;8.748;2023-07-02T15:00:07;21.90;;;15.48;;
6626;SDS011;3349;49.830;8.748;2023-07-02T15:02:34;20.05;;;15.48;;
6626;SDS011;3349;49.830;8.748;2023-07-02T15:05:01;21.92;;;16.02;;